sensor_id;sensor_type;location;lat;lon;timestamp;P1;durP1;ratioP1;P2;durP2;ratioP2
45540;SDS011;31265;49.680;8.608;2023-10-19T00:01:40;12.00;;;5.75;;
45540;SDS011;31265;49.680;8.608;2023-10-19T00:04:07;12.38;;;5.78;;
45540;SDS011;31265;49.680;8.608;2023-10-19T00:06:37;13.23;;;6.20;;
45540;SDS011;31265;49.680;8.608;2023-10-19T00:09:08;11.07;;;6.93;;
45540;SDS011;31265;49.680;8.608;2023-10-19T00:11:38;11.25;;;6.22;;
45540;SDS011;31265;49.680;8.608;2023-10-19T00:16:43;10.65;;;5.97;;
45540;SDS011;31265;49.680;8.608;2023-10-19T00:19:17;12.77;;;6.78;;
45540;SDS011;31265;49.680;8.608;2023-10-19T00:21:46;13.38;;;6.80;;
45540;SDS011;31265;49.680;8.608;2023-10-19T00:24:30;12.80;;;6.60;;
45540;SDS011;31265;49.680;8.608;2023-10-19T00:26:58;18.10;;;7.28;;
45540;SDS011;31265;49.680;8.608;2023-10-19T00:29:32;12.30;;;6.78;;
45540;SDS011;31265;49.680;8.608;2023-10-19T00:32:07;14.10;;;7.13;;
45540;SDS011;31265;49.680;8.608;2023-10-19T00:34:41;12.50;;;6.93;;
45540;SDS011;31265;49.680;8.608;2023-10-19T00:37:18;14.40;;;7.95;;
45540;SDS011;31265;49.680;8.608;2023-10-19T00:39:54;13.07;;;6.70;;
45540;SDS011;31265;49.680;8.608;2023-10-19T00:42:25;12.73;;;6.43;;
45540;SDS011;31265;49.680;8.608;2023-10-19T00:44:58;12.38;;;7.00;;
45540;SDS011;31265;49.680;8.608;2023-10-19T00:47:31;11.77;;;7.03;;
45540;SDS011;31265;49.680;8.608;2023-10-19T00:50:08;11.35;;;6.80;;
45540;SDS011;31265;49.680;8.608;2023-10-19T00:52:43;13.27;;;7.38;;
45540;SDS011;31265;49.680;8.608;2023-10-19T00:55:19;12.55;;;6.28;;
45540;SDS011;31265;49.680;8.608;2023-10-19T00:57:52;11.30;;;6.60;;
45540;SDS011;31265;49.680;8.608;2023-10-19T01:00:25;15.60;;;7.22;;
45540;SDS011;31265;49.680;8.608;2023-10-19T01:03:02;12.52;;;6.65;;
45540;SDS011;31265;49.680;8.608;2023-10-19T01:05:33;14.40;;;6.90;;
45540;SDS011;31265;49.680;8.608;2023-10-19T01:08:04;15.40;;;6.18;;
45540;SDS011;31265;49.680;8.608;2023-10-19T01:10:48;10.00;;;5.13;;
45540;SDS011;31265;49.680;8.608;2023-10-19T01:13:19;14.65;;;6.35;;
45540;SDS011;31265;49.680;8.608;2023-10-19T01:15:54;10.93;;;6.10;;
45540;SDS011;31265;49.680;8.608;2023-10-19T01:18:25;11.32;;;5.35;;
45540;SDS011;31265;49.680;8.608;2023-10-19T01:20:59;12.93;;;6.10;;
45540;SDS011;31265;49.680;8.608;2023-10-19T01:23:35;9.70;;;5.45;;
45540;SDS011;31265;49.680;8.608;2023-10-19T01:26:05;8.48;;;5.28;;
45540;SDS011;31265;49.680;8.608;2023-10-19T01:28:36;9.13;;;5.15;;
45540;SDS011;31265;49.680;8.608;2023-10-19T01:31:15;11.93;;;5.00;;
45540;SDS011;31265;49.680;8.608;2023-10-19T01:33:50;12.10;;;6.28;;
45540;SDS011;31265;49.680;8.608;2023-10-19T01:36:21;9.68;;;4.95;;
45540;SDS011;31265;49.680;8.608;2023-10-19T01:38:56;10.15;;;5.45;;
45540;SDS011;31265;49.680;8.608;2023-10-19T01:41:28;11.43;;;5.40;;
45540;SDS011;31265;49.680;8.608;2023-10-19T01:43:58;8.23;;;5.25;;
45540;SDS011;31265;49.680;8.608;2023-10-19T01:46:32;9.32;;;4.78;;
45540;SDS011;31265;49.680;8.608;2023-10-19T01:49:03;7.50;;;4.25;;
45540;SDS011;31265;49.680;8.608;2023-10-19T01:51:32;10.52;;;4.93;;
45540;SDS011;31265;49.680;8.608;2023-10-19T01:54:06;8.05;;;4.10;;
45540;SDS011;31265;49.680;8.608;2023-10-19T01:56:34;7.20;;;4.25;;
45540;SDS011;31265;49.680;8.608;2023-10-19T01:59:06;9.65;;;4.70;;
45540;SDS011;31265;49.680;8.608;2023-10-19T02:01:36;9.25;;;4.13;;
45540;SDS011;31265;49.680;8.608;2023-10-19T02:04:09;7.22;;;4.55;;
45540;SDS011;31265;49.680;8.608;2023-10-19T02:06:40;9.65;;;4.43;;
45540;SDS011;31265;49.680;8.608;2023-10-19T02:09:09;11.30;;;4.78;;
45540;SDS011;31265;49.680;8.608;2023-10-19T02:11:48;8.85;;;5.55;;
45540;SDS011;31265;49.680;8.608;2023-10-19T02:14:19;11.13;;;6.07;;
45540;SDS011;31265;49.680;8.608;2023-10-19T02:16:49;9.18;;;5.05;;
45540;SDS011;31265;49.680;8.608;2023-10-19T02:19:19;15.02;;;5.38;;
45540;SDS011;31265;49.680;8.608;2023-10-19T02:21:50;10.18;;;6.07;;
45540;SDS011;31265;49.680;8.608;2023-10-19T02:24:21;10.60;;;5.53;;
45540;SDS011;31265;49.680;8.608;2023-10-19T02:26:50;9.48;;;5.53;;
45540;SDS011;31265;49.680;8.608;2023-10-19T02:29:20;9.27;;;5.35;;
45540;SDS011;31265;49.680;8.608;2023-10-19T02:31:49;12.15;;;5.60;;
45540;SDS011;31265;49.680;8.608;2023-10-19T02:34:18;10.27;;;6.38;;
45540;SDS011;31265;49.680;8.608;2023-10-19T02:36:46;9.73;;;5.65;;
45540;SDS011;31265;49.680;8.608;2023-10-19T02:39:15;10.82;;;5.90;;
45540;SDS011;31265;49.680;8.608;2023-10-19T02:41:46;12.70;;;5.70;;
45540;SDS011;31265;49.680;8.608;2023-10-19T02:44:16;10.43;;;5.80;;
45540;SDS011;31265;49.680;8.608;2023-10-19T02:46:50;13.80;;;5.57;;
45540;SDS011;31265;49.680;8.608;2023-10-19T02:49:21;9.75;;;5.72;;
45540;SDS011;31265;49.680;8.608;2023-10-19T02:51:50;9.75;;;5.07;;
45540;SDS011;31265;49.680;8.608;2023-10-19T02:54:19;12.57;;;5.50;;
45540;SDS011;31265;49.680;8.608;2023-10-19T02:56:51;8.45;;;5.53;;
45540;SDS011;31265;49.680;8.608;2023-10-19T02:59:20;9.93;;;5.65;;
45540;SDS011;31265;49.680;8.608;2023-10-19T03:01:49;8.95;;;5.38;;
45540;SDS011;31265;49.680;8.608;2023-10-19T03:04:19;11.25;;;6.15;;
45540;SDS011;31265;49.680;8.608;2023-10-19T03:06:47;8.25;;;4.82;;
45540;SDS011;31265;49.680;8.608;2023-10-19T03:09:16;9.93;;;5.72;;
45540;SDS011;31265;49.680;8.608;2023-10-19T03:11:51;12.50;;;5.18;;
45540;SDS011;31265;49.680;8.608;2023-10-19T03:14:21;7.70;;;4.38;;
45540;SDS011;31265;49.680;8.608;2023-10-19T03:16:52;10.32;;;5.88;;
45540;SDS011;31265;49.680;8.608;2023-10-19T03:19:22;8.40;;;5.10;;
45540;SDS011;31265;49.680;8.608;2023-10-19T03:21:52;9.43;;;4.82;;
45540;SDS011;31265;49.680;8.608;2023-10-19T03:24:23;13.52;;;5.90;;
45540;SDS011;31265;49.680;8.608;2023-10-19T03:27:04;10.32;;;5.60;;
45540;SDS011;31265;49.680;8.608;2023-10-19T03:29:39;11.07;;;6.30;;
45540;SDS011;31265;49.680;8.608;2023-10-19T03:32:13;9.50;;;5.25;;
45540;SDS011;31265;49.680;8.608;2023-10-19T03:34:44;14.02;;;6.63;;
45540;SDS011;31265;49.680;8.608;2023-10-19T03:37:20;11.30;;;5.38;;
45540;SDS011;31265;49.680;8.608;2023-10-19T03:39:49;12.93;;;6.78;;
45540;SDS011;31265;49.680;8.608;2023-10-19T03:42:19;11.15;;;5.75;;
45540;SDS011;31265;49.680;8.608;2023-10-19T03:44:49;14.52;;;7.45;;
45540;SDS011;31265;49.680;8.608;2023-10-19T03:47:21;8.85;;;5.90;;
45540;SDS011;31265;49.680;8.608;2023-10-19T03:49:56;9.60;;;5.90;;
45540;SDS011;31265;49.680;8.608;2023-10-19T03:52:27;13.02;;;5.82;;
45540;SDS011;31265;49.680;8.608;2023-10-19T03:54:57;11.45;;;6.35;;
45540;SDS011;31265;49.680;8.608;2023-10-19T03:57:27;11.38;;;5.88;;
45540;SDS011;31265;49.680;8.608;2023-10-19T03:59:57;10.23;;;6.30;;
45540;SDS011;31265;49.680;8.608;2023-10-19T04:02:27;12.77;;;7.10;;
45540;SDS011;31265;49.680;8.608;2023-10-19T04:05:02;10.95;;;6.10;;
45540;SDS011;31265;49.680;8.608;2023-10-19T04:07:31;9.82;;;5.50;;
45540;SDS011;31265;49.680;8.608;2023-10-19T04:10:00;11.57;;;5.90;;
45540;SDS011;31265;49.680;8.608;2023-10-19T04:12:39;13.45;;;5.97;;
45540;SDS011;31265;49.680;8.608;2023-10-19T04:15:10;11.10;;;5.38;;
45540;SDS011;31265;49.680;8.608;2023-10-19T04:17:42;10.45;;;5.60;;
45540;SDS011;31265;49.680;8.608;2023-10-19T04:20:11;14.25;;;6.65;;
45540;SDS011;31265;49.680;8.608;2023-10-19T04:22:55;9.60;;;5.93;;
45540;SDS011;31265;49.680;8.608;2023-10-19T04:25:25;11.45;;;5.93;;
45540;SDS011;31265;49.680;8.608;2023-10-19T04:27:55;11.57;;;5.50;;
45540;SDS011;31265;49.680;8.608;2023-10-19T04:30:25;10.00;;;5.45;;
45540;SDS011;31265;49.680;8.608;2023-10-19T04:32:54;11.05;;;5.38;;
45540;SDS011;31265;49.680;8.608;2023-10-19T04:35:25;9.98;;;5.47;;
45540;SDS011;31265;49.680;8.608;2023-10-19T04:37:57;10.25;;;5.32;;
45540;SDS011;31265;49.680;8.608;2023-10-19T04:40:26;10.43;;;6.32;;
45540;SDS011;31265;49.680;8.608;2023-10-19T04:42:56;8.40;;;4.57;;
45540;SDS011;31265;49.680;8.608;2023-10-19T04:47:53;9.95;;;4.57;;
45540;SDS011;31265;49.680;8.608;2023-10-19T04:50:22;14.38;;;5.10;;
45540;SDS011;31265;49.680;8.608;2023-10-19T04:52:50;10.40;;;5.22;;
45540;SDS011;31265;49.680;8.608;2023-10-19T04:55:20;9.07;;;5.35;;
45540;SDS011;31265;49.680;8.608;2023-10-19T04:57:48;7.70;;;4.32;;
45540;SDS011;31265;49.680;8.608;2023-10-19T05:00:19;6.82;;;4.25;;
45540;SDS011;31265;49.680;8.608;2023-10-19T05:02:48;9.38;;;4.95;;
45540;SDS011;31265;49.680;8.608;2023-10-19T05:05:19;8.48;;;4.85;;
45540;SDS011;31265;49.680;8.608;2023-10-19T05:07:47;11.70;;;4.95;;
45540;SDS011;31265;49.680;8.608;2023-10-19T05:10:16;9.93;;;4.63;;
45540;SDS011;31265;49.680;8.608;2023-10-19T05:12:46;8.13;;;5.20;;
45540;SDS011;31265;49.680;8.608;2023-10-19T05:15:15;7.13;;;3.88;;
45540;SDS011;31265;49.680;8.608;2023-10-19T05:17:47;7.35;;;4.47;;
45540;SDS011;31265;49.680;8.608;2023-10-19T05:20:15;11.10;;;4.95;;
45540;SDS011;31265;49.680;8.608;2023-10-19T05:22:44;13.52;;;4.97;;
45540;SDS011;31265;49.680;8.608;2023-10-19T05:25:12;9.55;;;4.40;;
45540;SDS011;31265;49.680;8.608;2023-10-19T05:27:41;7.97;;;4.63;;
45540;SDS011;31265;49.680;8.608;2023-10-19T05:30:13;6.43;;;4.03;;
45540;SDS011;31265;49.680;8.608;2023-10-19T05:32:41;10.88;;;4.13;;
45540;SDS011;31265;49.680;8.608;2023-10-19T05:35:11;10.10;;;4.87;;
45540;SDS011;31265;49.680;8.608;2023-10-19T05:37:45;10.30;;;5.00;;
45540;SDS011;31265;49.680;8.608;2023-10-19T05:40:16;8.32;;;4.88;;
45540;SDS011;31265;49.680;8.608;2023-10-19T05:42:46;8.90;;;4.93;;
45540;SDS011;31265;49.680;8.608;2023-10-19T05:45:14;8.25;;;5.30;;
45540;SDS011;31265;49.680;8.608;2023-10-19T05:47:44;7.25;;;4.18;;
45540;SDS011;31265;49.680;8.608;2023-10-19T05:50:15;10.23;;;4.80;;
45540;SDS011;31265;49.680;8.608;2023-10-19T05:52:43;7.00;;;3.97;;
45540;SDS011;31265;49.680;8.608;2023-10-19T05:55:11;6.38;;;3.83;;
45540;SDS011;31265;49.680;8.608;2023-10-19T05:57:40;9.20;;;4.82;;
45540;SDS011;31265;49.680;8.608;2023-10-19T06:00:09;9.27;;;4.55;;
45540;SDS011;31265;49.680;8.608;2023-10-19T06:02:41;8.98;;;4.15;;
45540;SDS011;31265;49.680;8.608;2023-10-19T06:05:12;15.25;;;4.25;;
45540;SDS011;31265;49.680;8.608;2023-10-19T06:07:44;6.68;;;3.92;;
45540;SDS011;31265;49.680;8.608;2023-10-19T06:10:14;6.53;;;3.95;;
45540;SDS011;31265;49.680;8.608;2023-10-19T06:12:44;9.95;;;5.15;;
45540;SDS011;31265;49.680;8.608;2023-10-19T06:17:42;12.95;;;4.80;;
45540;SDS011;31265;49.680;8.608;2023-10-19T06:20:13;8.95;;;4.78;;
45540;SDS011;31265;49.680;8.608;2023-10-19T06:22:53;9.25;;;5.22;;
45540;SDS011;31265;49.680;8.608;2023-10-19T06:25:26;12.45;;;4.88;;
45540;SDS011;31265;49.680;8.608;2023-10-19T06:27:55;9.00;;;5.35;;
45540;SDS011;31265;49.680;8.608;2023-10-19T06:30:25;13.40;;;4.47;;
45540;SDS011;31265;49.680;8.608;2023-10-19T06:32:54;8.65;;;4.70;;
45540;SDS011;31265;49.680;8.608;2023-10-19T06:35:28;9.73;;;4.82;;
45540;SDS011;31265;49.680;8.608;2023-10-19T06:38:00;7.82;;;5.13;;
45540;SDS011;31265;49.680;8.608;2023-10-19T06:40:33;9.70;;;4.90;;
45540;SDS011;31265;49.680;8.608;2023-10-19T06:43:03;6.82;;;4.43;;
45540;SDS011;31265;49.680;8.608;2023-10-19T06:45:32;6.50;;;4.07;;
45540;SDS011;31265;49.680;8.608;2023-10-19T06:48:01;9.47;;;5.07;;
45540;SDS011;31265;49.680;8.608;2023-10-19T06:50:31;8.68;;;4.97;;
45540;SDS011;31265;49.680;8.608;2023-10-19T06:53:01;8.57;;;4.78;;
45540;SDS011;31265;49.680;8.608;2023-10-19T06:55:32;11.30;;;5.38;;
45540;SDS011;31265;49.680;8.608;2023-10-19T06:58:01;10.65;;;5.55;;
45540;SDS011;31265;49.680;8.608;2023-10-19T07:00:29;7.60;;;4.28;;
45540;SDS011;31265;49.680;8.608;2023-10-19T07:02:58;7.80;;;4.73;;
45540;SDS011;31265;49.680;8.608;2023-10-19T07:05:28;7.45;;;4.72;;
45540;SDS011;31265;49.680;8.608;2023-10-19T07:07:58;6.68;;;4.35;;
45540;SDS011;31265;49.680;8.608;2023-10-19T07:10:30;6.88;;;4.05;;
45540;SDS011;31265;49.680;8.608;2023-10-19T07:12:59;9.05;;;3.63;;
45540;SDS011;31265;49.680;8.608;2023-10-19T07:15:27;8.45;;;4.90;;
45540;SDS011;31265;49.680;8.608;2023-10-19T07:17:57;6.43;;;4.03;;
45540;SDS011;31265;49.680;8.608;2023-10-19T07:20:26;8.40;;;4.57;;
45540;SDS011;31265;49.680;8.608;2023-10-19T07:22:57;5.22;;;3.10;;
45540;SDS011;31265;49.680;8.608;2023-10-19T07:25:27;6.30;;;3.80;;
45540;SDS011;31265;49.680;8.608;2023-10-19T07:27:57;5.72;;;3.45;;
45540;SDS011;31265;49.680;8.608;2023-10-19T07:30:27;8.68;;;3.30;;
45540;SDS011;31265;49.680;8.608;2023-10-19T07:32:57;11.25;;;3.75;;
45540;SDS011;31265;49.680;8.608;2023-10-19T07:35:27;6.97;;;2.88;;
45540;SDS011;31265;49.680;8.608;2023-10-19T07:38:01;6.60;;;3.80;;
45540;SDS011;31265;49.680;8.608;2023-10-19T07:40:30;7.10;;;3.92;;
45540;SDS011;31265;49.680;8.608;2023-10-19T07:43:00;7.65;;;3.47;;
45540;SDS011;31265;49.680;8.608;2023-10-19T07:45:30;6.57;;;3.50;;
45540;SDS011;31265;49.680;8.608;2023-10-19T07:48:01;7.07;;;3.20;;
45540;SDS011;31265;49.680;8.608;2023-10-19T07:50:34;6.70;;;3.70;;
45540;SDS011;31265;49.680;8.608;2023-10-19T07:53:04;6.22;;;3.25;;
45540;SDS011;31265;49.680;8.608;2023-10-19T07:55:32;6.93;;;3.37;;
45540;SDS011;31265;49.680;8.608;2023-10-19T07:58:02;5.88;;;3.42;;
45540;SDS011;31265;49.680;8.608;2023-10-19T08:00:31;6.95;;;3.08;;
45540;SDS011;31265;49.680;8.608;2023-10-19T08:03:01;6.75;;;2.83;;
45540;SDS011;31265;49.680;8.608;2023-10-19T08:05:31;5.07;;;3.03;;
45540;SDS011;31265;49.680;8.608;2023-10-19T08:08:01;5.70;;;2.97;;
45540;SDS011;31265;49.680;8.608;2023-10-19T08:10:31;6.20;;;2.58;;
45540;SDS011;31265;49.680;8.608;2023-10-19T08:13:03;5.97;;;2.72;;
45540;SDS011;31265;49.680;8.608;2023-10-19T08:15:32;7.75;;;2.97;;
45540;SDS011;31265;49.680;8.608;2023-10-19T08:18:02;6.18;;;3.20;;
45540;SDS011;31265;49.680;8.608;2023-10-19T08:20:32;8.23;;;2.72;;
45540;SDS011;31265;49.680;8.608;2023-10-19T08:23:04;4.72;;;2.40;;
45540;SDS011;31265;49.680;8.608;2023-10-19T08:25:33;5.53;;;2.58;;
45540;SDS011;31265;49.680;8.608;2023-10-19T08:28:24;6.75;;;2.90;;
45540;SDS011;31265;49.680;8.608;2023-10-19T08:30:54;4.53;;;2.50;;
45540;SDS011;31265;49.680;8.608;2023-10-19T08:33:27;5.85;;;2.55;;
45540;SDS011;31265;49.680;8.608;2023-10-19T08:35:57;4.80;;;2.85;;
45540;SDS011;31265;49.680;8.608;2023-10-19T08:38:38;5.28;;;3.20;;
45540;SDS011;31265;49.680;8.608;2023-10-19T08:41:33;4.72;;;2.55;;
45540;SDS011;31265;49.680;8.608;2023-10-19T08:44:06;4.32;;;2.25;;
45540;SDS011;31265;49.680;8.608;2023-10-19T08:46:38;5.90;;;2.58;;
45540;SDS011;31265;49.680;8.608;2023-10-19T08:49:10;11.63;;;2.83;;
45540;SDS011;31265;49.680;8.608;2023-10-19T08:51:40;4.47;;;2.50;;
45540;SDS011;31265;49.680;8.608;2023-10-19T08:54:12;5.65;;;2.67;;
45540;SDS011;31265;49.680;8.608;2023-10-19T08:56:42;4.38;;;2.13;;
45540;SDS011;31265;49.680;8.608;2023-10-19T08:59:12;3.25;;;2.13;;
45540;SDS011;31265;49.680;8.608;2023-10-19T09:01:42;5.32;;;2.65;;
45540;SDS011;31265;49.680;8.608;2023-10-19T09:04:11;5.38;;;2.10;;
45540;SDS011;31265;49.680;8.608;2023-10-19T09:06:43;5.22;;;2.30;;
45540;SDS011;31265;49.680;8.608;2023-10-19T09:09:12;4.70;;;2.63;;
45540;SDS011;31265;49.680;8.608;2023-10-19T09:11:43;3.97;;;2.10;;
45540;SDS011;31265;49.680;8.608;2023-10-19T09:14:15;5.05;;;2.65;;
45540;SDS011;31265;49.680;8.608;2023-10-19T09:16:57;9.52;;;2.50;;
45540;SDS011;31265;49.680;8.608;2023-10-19T09:19:37;4.25;;;2.42;;
45540;SDS011;31265;49.680;8.608;2023-10-19T09:22:07;6.28;;;2.13;;
45540;SDS011;31265;49.680;8.608;2023-10-19T09:24:43;4.78;;;2.35;;
45540;SDS011;31265;49.680;8.608;2023-10-19T09:27:13;7.50;;;2.15;;
45540;SDS011;31265;49.680;8.608;2023-10-19T09:29:46;4.95;;;2.30;;
45540;SDS011;31265;49.680;8.608;2023-10-19T09:32:16;5.97;;;2.05;;
45540;SDS011;31265;49.680;8.608;2023-10-19T09:34:46;5.53;;;2.10;;
45540;SDS011;31265;49.680;8.608;2023-10-19T09:37:15;8.88;;;2.33;;
45540;SDS011;31265;49.680;8.608;2023-10-19T09:39:45;4.57;;;2.60;;
45540;SDS011;31265;49.680;8.608;2023-10-19T09:42:14;4.78;;;2.30;;
45540;SDS011;31265;49.680;8.608;2023-10-19T09:44:47;6.88;;;2.00;;
45540;SDS011;31265;49.680;8.608;2023-10-19T09:47:26;4.72;;;2.35;;
45540;SDS011;31265;49.680;8.608;2023-10-19T09:49:58;4.53;;;2.70;;
45540;SDS011;31265;49.680;8.608;2023-10-19T09:52:26;4.28;;;2.05;;
45540;SDS011;31265;49.680;8.608;2023-10-19T09:54:59;9.60;;;2.08;;
45540;SDS011;31265;49.680;8.608;2023-10-19T09:57:39;6.63;;;3.47;;
45540;SDS011;31265;49.680;8.608;2023-10-19T10:00:17;4.05;;;1.63;;
45540;SDS011;31265;49.680;8.608;2023-10-19T10:02:50;3.70;;;1.60;;
45540;SDS011;31265;49.680;8.608;2023-10-19T10:11:20;4.38;;;1.67;;
45540;SDS011;31265;49.680;8.608;2023-10-19T10:13:54;3.85;;;1.33;;
45540;SDS011;31265;49.680;8.608;2023-10-19T10:16:26;3.20;;;1.50;;
45540;SDS011;31265;49.680;8.608;2023-10-19T10:18:56;4.25;;;1.45;;
45540;SDS011;31265;49.680;8.608;2023-10-19T10:21:27;3.85;;;2.00;;
45540;SDS011;31265;49.680;8.608;2023-10-19T10:23:58;3.95;;;1.95;;
45540;SDS011;31265;49.680;8.608;2023-10-19T10:26:29;5.70;;;1.67;;
45540;SDS011;31265;49.680;8.608;2023-10-19T10:29:07;5.78;;;1.60;;
45540;SDS011;31265;49.680;8.608;2023-10-19T10:31:43;2.85;;;1.67;;
45540;SDS011;31265;49.680;8.608;2023-10-19T10:37:12;3.87;;;1.73;;
45540;SDS011;31265;49.680;8.608;2023-10-19T10:39:42;11.23;;;2.05;;
45540;SDS011;31265;49.680;8.608;2023-10-19T10:42:16;3.92;;;2.17;;
45540;SDS011;31265;49.680;8.608;2023-10-19T10:44:45;2.50;;;1.25;;
45540;SDS011;31265;49.680;8.608;2023-10-19T10:47:17;2.72;;;1.58;;
45540;SDS011;31265;49.680;8.608;2023-10-19T10:49:50;2.97;;;1.65;;
45540;SDS011;31265;49.680;8.608;2023-10-19T10:52:25;3.75;;;1.60;;
45540;SDS011;31265;49.680;8.608;2023-10-19T10:54:56;3.42;;;1.38;;
45540;SDS011;31265;49.680;8.608;2023-10-19T10:57:30;4.85;;;1.65;;
45540;SDS011;31265;49.680;8.608;2023-10-19T11:00:00;3.60;;;1.65;;
45540;SDS011;31265;49.680;8.608;2023-10-19T11:02:32;3.88;;;1.70;;
45540;SDS011;31265;49.680;8.608;2023-10-19T11:05:01;5.57;;;1.75;;
45540;SDS011;31265;49.680;8.608;2023-10-19T11:07:30;5.60;;;1.60;;
45540;SDS011;31265;49.680;8.608;2023-10-19T11:09:59;4.93;;;1.90;;
45540;SDS011;31265;49.680;8.608;2023-10-19T11:14:57;2.67;;;1.45;;
45540;SDS011;31265;49.680;8.608;2023-10-19T11:17:28;2.50;;;1.40;;
45540;SDS011;31265;49.680;8.608;2023-10-19T11:20:00;3.75;;;1.92;;
45540;SDS011;31265;49.680;8.608;2023-10-19T11:22:28;4.75;;;1.52;;
45540;SDS011;31265;49.680;8.608;2023-10-19T11:24:58;3.87;;;2.30;;
45540;SDS011;31265;49.680;8.608;2023-10-19T11:27:46;4.60;;;1.80;;
45540;SDS011;31265;49.680;8.608;2023-10-19T11:30:22;3.35;;;1.65;;
45540;SDS011;31265;49.680;8.608;2023-10-19T11:32:51;4.75;;;1.40;;
45540;SDS011;31265;49.680;8.608;2023-10-19T11:35:26;4.65;;;1.98;;
45540;SDS011;31265;49.680;8.608;2023-10-19T11:37:57;10.40;;;2.08;;
45540;SDS011;31265;49.680;8.608;2023-10-19T11:40:27;4.32;;;1.83;;
45540;SDS011;31265;49.680;8.608;2023-10-19T11:42:56;4.65;;;1.75;;
45540;SDS011;31265;49.680;8.608;2023-10-19T11:45:27;5.10;;;1.60;;
45540;SDS011;31265;49.680;8.608;2023-10-19T11:47:57;5.38;;;1.80;;
45540;SDS011;31265;49.680;8.608;2023-10-19T11:50:28;3.40;;;1.88;;
45540;SDS011;31265;49.680;8.608;2023-10-19T11:52:56;3.92;;;1.42;;
45540;SDS011;31265;49.680;8.608;2023-10-19T11:55:25;5.35;;;1.70;;
45540;SDS011;31265;49.680;8.608;2023-10-19T11:58:02;8.00;;;1.52;;
45540;SDS011;31265;49.680;8.608;2023-10-19T12:00:31;8.50;;;2.00;;
45540;SDS011;31265;49.680;8.608;2023-10-19T12:03:05;3.40;;;1.30;;
45540;SDS011;31265;49.680;8.608;2023-10-19T12:05:35;2.65;;;1.38;;
45540;SDS011;31265;49.680;8.608;2023-10-19T12:08:04;3.00;;;1.25;;
45540;SDS011;31265;49.680;8.608;2023-10-19T12:10:34;4.70;;;1.73;;
45540;SDS011;31265;49.680;8.608;2023-10-19T12:13:03;3.60;;;1.60;;
45540;SDS011;31265;49.680;8.608;2023-10-19T12:18:00;6.13;;;1.58;;
45540;SDS011;31265;49.680;8.608;2023-10-19T12:20:29;3.28;;;1.00;;
45540;SDS011;31265;49.680;8.608;2023-10-19T12:23:00;5.20;;;1.25;;
45540;SDS011;31265;49.680;8.608;2023-10-19T12:25:33;2.80;;;1.25;;
45540;SDS011;31265;49.680;8.608;2023-10-19T12:28:22;5.95;;;1.50;;
45540;SDS011;31265;49.680;8.608;2023-10-19T12:30:52;3.00;;;1.30;;
45540;SDS011;31265;49.680;8.608;2023-10-19T12:33:20;6.60;;;1.70;;
45540;SDS011;31265;49.680;8.608;2023-10-19T12:35:49;1.92;;;1.00;;
45540;SDS011;31265;49.680;8.608;2023-10-19T12:40:49;2.17;;;0.98;;
45540;SDS011;31265;49.680;8.608;2023-10-19T12:43:18;4.13;;;1.60;;
45540;SDS011;31265;49.680;8.608;2023-10-19T12:45:49;2.88;;;1.42;;
45540;SDS011;31265;49.680;8.608;2023-10-19T12:48:28;3.72;;;1.48;;
45540;SDS011;31265;49.680;8.608;2023-10-19T12:51:00;5.40;;;1.48;;
45540;SDS011;31265;49.680;8.608;2023-10-19T12:53:31;3.08;;;0.95;;
45540;SDS011;31265;49.680;8.608;2023-10-19T12:56:00;7.57;;;2.50;;
45540;SDS011;31265;49.680;8.608;2023-10-19T13:00:59;5.18;;;1.80;;
45540;SDS011;31265;49.680;8.608;2023-10-19T13:03:27;3.03;;;1.40;;
45540;SDS011;31265;49.680;8.608;2023-10-19T13:06:00;3.25;;;1.40;;
45540;SDS011;31265;49.680;8.608;2023-10-19T13:08:33;2.80;;;1.23;;
45540;SDS011;31265;49.680;8.608;2023-10-19T13:11:01;3.55;;;1.60;;
45540;SDS011;31265;49.680;8.608;2023-10-19T13:13:42;2.88;;;1.40;;
45540;SDS011;31265;49.680;8.608;2023-10-19T13:16:11;3.43;;;1.10;;
45540;SDS011;31265;49.680;8.608;2023-10-19T13:18:41;5.43;;;1.40;;
45540;SDS011;31265;49.680;8.608;2023-10-19T13:21:11;5.00;;;1.38;;
45540;SDS011;31265;49.680;8.608;2023-10-19T13:23:45;3.40;;;1.55;;
45540;SDS011;31265;49.680;8.608;2023-10-19T13:26:15;2.95;;;1.33;;
45540;SDS011;31265;49.680;8.608;2023-10-19T13:28:47;2.63;;;1.60;;
45540;SDS011;31265;49.680;8.608;2023-10-19T13:31:19;2.20;;;1.35;;
45540;SDS011;31265;49.680;8.608;2023-10-19T13:33:49;5.47;;;2.88;;
45540;SDS011;31265;49.680;8.608;2023-10-19T13:36:19;3.60;;;1.48;;
45540;SDS011;31265;49.680;8.608;2023-10-19T13:38:49;3.77;;;1.70;;
45540;SDS011;31265;49.680;8.608;2023-10-19T13:41:19;4.22;;;1.73;;
45540;SDS011;31265;49.680;8.608;2023-10-19T13:43:48;4.97;;;1.88;;
45540;SDS011;31265;49.680;8.608;2023-10-19T13:46:17;3.72;;;2.10;;
45540;SDS011;31265;49.680;8.608;2023-10-19T13:48:45;5.15;;;2.45;;
45540;SDS011;31265;49.680;8.608;2023-10-19T13:51:15;4.80;;;1.92;;
45540;SDS011;31265;49.680;8.608;2023-10-19T13:53:46;4.05;;;1.73;;
45540;SDS011;31265;49.680;8.608;2023-10-19T13:56:16;3.53;;;2.03;;
45540;SDS011;31265;49.680;8.608;2023-10-19T13:58:44;5.07;;;2.33;;
45540;SDS011;31265;49.680;8.608;2023-10-19T14:01:14;5.65;;;2.30;;
45540;SDS011;31265;49.680;8.608;2023-10-19T14:03:44;3.92;;;1.95;;
45540;SDS011;31265;49.680;8.608;2023-10-19T14:06:14;5.82;;;2.38;;
45540;SDS011;31265;49.680;8.608;2023-10-19T14:08:43;5.68;;;2.10;;
45540;SDS011;31265;49.680;8.608;2023-10-19T14:11:12;5.80;;;2.38;;
45540;SDS011;31265;49.680;8.608;2023-10-19T14:13:42;2.65;;;1.70;;
45540;SDS011;31265;49.680;8.608;2023-10-19T14:16:11;4.90;;;2.17;;
45540;SDS011;31265;49.680;8.608;2023-10-19T14:18:41;4.13;;;2.30;;
45540;SDS011;31265;49.680;8.608;2023-10-19T14:21:11;5.82;;;2.13;;
45540;SDS011;31265;49.680;8.608;2023-10-19T14:23:41;10.32;;;2.00;;
45540;SDS011;31265;49.680;8.608;2023-10-19T14:26:11;3.50;;;2.28;;
45540;SDS011;31265;49.680;8.608;2023-10-19T14:28:43;4.80;;;1.85;;
45540;SDS011;31265;49.680;8.608;2023-10-19T14:33:40;4.20;;;2.20;;
45540;SDS011;31265;49.680;8.608;2023-10-19T14:36:09;5.57;;;2.00;;
45540;SDS011;31265;49.680;8.608;2023-10-19T14:38:38;5.25;;;2.70;;
45540;SDS011;31265;49.680;8.608;2023-10-19T14:43:37;3.10;;;1.92;;
45540;SDS011;31265;49.680;8.608;2023-10-19T14:46:07;4.88;;;2.58;;
45540;SDS011;31265;49.680;8.608;2023-10-19T14:48:35;5.80;;;2.63;;
45540;SDS011;31265;49.680;8.608;2023-10-19T14:51:04;5.67;;;2.27;;
45540;SDS011;31265;49.680;8.608;2023-10-19T14:56:03;5.25;;;2.95;;
45540;SDS011;31265;49.680;8.608;2023-10-19T14:58:33;6.10;;;2.92;;
45540;SDS011;31265;49.680;8.608;2023-10-19T15:01:01;7.78;;;3.25;;
45540;SDS011;31265;49.680;8.608;2023-10-19T15:03:31;4.88;;;2.40;;
45540;SDS011;31265;49.680;8.608;2023-10-19T15:06:02;4.60;;;2.45;;
45540;SDS011;31265;49.680;8.608;2023-10-19T15:08:33;3.60;;;2.08;;
45540;SDS011;31265;49.680;8.608;2023-10-19T15:11:03;5.90;;;2.50;;
45540;SDS011;31265;49.680;8.608;2023-10-19T15:13:31;3.88;;;2.35;;
45540;SDS011;31265;49.680;8.608;2023-10-19T15:16:06;5.45;;;2.40;;
45540;SDS011;31265;49.680;8.608;2023-10-19T15:18:37;6.25;;;1.98;;
45540;SDS011;31265;49.680;8.608;2023-10-19T15:21:06;5.88;;;2.42;;
45540;SDS011;31265;49.680;8.608;2023-10-19T15:23:35;9.77;;;2.05;;
45540;SDS011;31265;49.680;8.608;2023-10-19T15:28:33;5.32;;;1.80;;
45540;SDS011;31265;49.680;8.608;2023-10-19T15:31:05;2.58;;;1.20;;
45540;SDS011;31265;49.680;8.608;2023-10-19T15:33:37;3.80;;;1.73;;
45540;SDS011;31265;49.680;8.608;2023-10-19T15:36:06;5.35;;;1.73;;
45540;SDS011;31265;49.680;8.608;2023-10-19T15:38:35;3.53;;;1.40;;
45540;SDS011;31265;49.680;8.608;2023-10-19T15:41:03;3.05;;;1.48;;
45540;SDS011;31265;49.680;8.608;2023-10-19T15:43:32;2.25;;;0.80;;